Terminal Aerodrome Forecast
Issued by NWS Paducah, KY

Home | Current Version | Previous Version | Text Only | Print | Product List | Glossary On
Versions: 1 2 3 4 5 6 7 8 9 10 11 12 13 14 15 16 17 18 19 20 21 22 23 24 25 26 27
000
FTUS43 KPAH 310500
TAFPAH
TAF
KPAH 310520Z 3106/0106 19004KT P6SM VCSH BKN010
      TEMPO 3106/3109 SCT010 OVC150
     FM311000 19003KT 3SM BR OVC008
     FM311600 23007KT P6SM BKN030
     FM312300 19004KT P6SM SCT040=

USA.gov is the U.S. government's official web portal to all federal, state and local government web resources and services.